createdAt,value
2017-11-29T00:00:30.012Z,1005.57
2017-11-29T00:01:57.198Z,1005.58
2017-11-29T00:03:24.573Z,1005.58
2017-11-29T00:04:51.927Z,1005.58
2017-11-29T00:06:19.070Z,1005.58
2017-11-29T00:07:45.922Z,1005.60
2017-11-29T00:09:13.011Z,1005.61
2017-11-29T00:10:40.142Z,1005.60
2017-11-29T00:12:07.329Z,1005.60
2017-11-29T00:13:34.558Z,1005.60
2017-11-29T00:15:01.854Z,1005.60
2017-11-29T00:16:29.170Z,1005.62
2017-11-29T00:17:56.421Z,1005.62
2017-11-29T00:19:23.620Z,1005.60
2017-11-29T00:22:18.094Z,1005.66
2017-11-29T00:23:45.468Z,1005.63
2017-11-29T00:25:12.819Z,1005.64
2017-11-29T00:26:40.164Z,1005.61
2017-11-29T00:28:07.279Z,1005.64
2017-11-29T00:29:34.481Z,1005.65
2017-11-29T00:31:01.655Z,1005.67
2017-11-29T00:32:28.908Z,1005.74
2017-11-29T00:33:55.974Z,1005.75
2017-11-29T00:35:23.201Z,1005.75
2017-11-29T00:36:50.266Z,1005.73
2017-11-29T00:38:17.671Z,1005.74
2017-11-29T00:39:44.597Z,1005.77
2017-11-29T00:41:11.734Z,1005.78
2017-11-29T00:42:39.071Z,1005.79
2017-11-29T00:44:06.164Z,1005.80
2017-11-29T00:45:33.417Z,1005.83
2017-11-29T00:47:00.896Z,1005.80
2017-11-29T00:48:27.850Z,1005.83
2017-11-29T00:49:55.163Z,1005.83
2017-11-29T00:51:22.583Z,1005.82
2017-11-29T00:52:49.669Z,1005.83
2017-11-29T00:54:17.004Z,1005.87
2017-11-29T00:55:44.180Z,1005.87
2017-11-29T00:57:11.503Z,1005.88
2017-11-29T00:58:38.834Z,1005.87
2017-11-29T01:00:06.181Z,1005.89
2017-11-29T01:01:33.071Z,1005.88
2017-11-29T01:03:00.277Z,1005.90
2017-11-29T01:04:27.581Z,1005.92
2017-11-29T01:05:54.794Z,1005.92
2017-11-29T01:07:21.971Z,1005.92
2017-11-29T01:08:49.370Z,1005.92
2017-11-29T01:10:16.686Z,1005.94
2017-11-29T01:11:43.798Z,1005.94
2017-11-29T01:13:11.025Z,1005.94
2017-11-29T01:14:38.555Z,1005.91
2017-11-29T01:16:05.742Z,1005.90
2017-11-29T01:17:32.997Z,1005.96
2017-11-29T01:18:59.962Z,1005.95
2017-11-29T01:20:27.253Z,1005.98
2017-11-29T01:21:54.759Z,1005.97
2017-11-29T01:23:21.650Z,1005.95
2017-11-29T01:24:48.945Z,1005.97
2017-11-29T01:26:16.283Z,1005.99
2017-11-29T01:27:43.553Z,1005.97
2017-11-29T01:29:10.786Z,1005.98
2017-11-29T01:30:38.124Z,1005.99
2017-11-29T01:32:05.453Z,1005.96
2017-11-29T01:33:32.764Z,1005.96
2017-11-29T01:34:59.923Z,1005.94
2017-11-29T01:36:27.133Z,1005.96
2017-11-29T01:37:54.133Z,1005.92
2017-11-29T01:39:21.400Z,1005.95
2017-11-29T01:40:48.893Z,1005.93
2017-11-29T01:42:16.096Z,1005.95
2017-11-29T01:43:43.220Z,1005.93
2017-11-29T01:45:10.497Z,1005.93
2017-11-29T01:46:37.527Z,1005.94
2017-11-29T01:48:04.463Z,1005.92
2017-11-29T01:49:31.686Z,1005.92
2017-11-29T01:50:58.952Z,1005.91
2017-11-29T01:52:26.107Z,1005.93
2017-11-29T01:53:53.554Z,1005.92
2017-11-29T01:55:20.833Z,1005.94
2017-11-29T01:56:48.007Z,1005.93
2017-11-29T01:58:15.269Z,1005.92
2017-11-29T01:59:42.645Z,1005.92
2017-11-29T02:01:09.794Z,1005.91
2017-11-29T02:02:36.941Z,1005.90
2017-11-29T02:04:04.287Z,1005.93
2017-11-29T02:05:31.398Z,1005.91
2017-11-29T02:06:58.682Z,1005.92
2017-11-29T02:08:25.818Z,1005.96
2017-11-29T02:09:53.145Z,1005.95
2017-11-29T02:11:20.402Z,1005.96
2017-11-29T02:12:47.575Z,1005.96
2017-11-29T02:14:14.798Z,1005.91
2017-11-29T02:15:42.190Z,1005.94
2017-11-29T02:17:09.385Z,1005.95
2017-11-29T02:18:36.782Z,1005.96
2017-11-29T02:20:03.997Z,1005.97
2017-11-29T02:21:31.232Z,1005.95
2017-11-29T02:22:58.368Z,1005.95
2017-11-29T02:24:25.667Z,1005.97
2017-11-29T02:25:53.177Z,1005.96
2017-11-29T02:27:20.369Z,1005.97
2017-11-29T02:28:47.352Z,1005.95
2017-11-29T02:30:14.661Z,1005.93
2017-11-29T02:31:41.995Z,1005.93
2017-11-29T02:33:09.246Z,1005.95
2017-11-29T02:34:36.292Z,1005.97
2017-11-29T02:36:03.634Z,1006.00
2017-11-29T02:37:31.009Z,1006.01
2017-11-29T02:38:58.031Z,1006.00
2017-11-29T02:40:25.200Z,1005.99
2017-11-29T02:41:52.643Z,1006.00
2017-11-29T02:43:19.771Z,1005.96
2017-11-29T02:44:46.931Z,1005.99
2017-11-29T02:46:13.901Z,1005.97
2017-11-29T02:47:41.277Z,1005.96
2017-11-29T02:49:08.574Z,1005.94
2017-11-29T02:50:36.022Z,1005.94
2017-11-29T02:52:03.093Z,1005.96
2017-11-29T02:53:30.416Z,1005.97
2017-11-29T02:54:57.708Z,1005.94
2017-11-29T02:56:25.149Z,1005.96
2017-11-29T02:57:52.330Z,1005.98
2017-11-29T02:59:19.650Z,1005.98
2017-11-29T03:00:47.002Z,1005.97
2017-11-29T03:02:14.286Z,1005.98
2017-11-29T03:03:41.509Z,1006.00
2017-11-29T03:05:08.806Z,1006.01
2017-11-29T03:06:35.829Z,1006.02
2017-11-29T03:08:03.149Z,1006.00
2017-11-29T03:09:30.212Z,1005.99
2017-11-29T03:10:57.233Z,1006.01
2017-11-29T03:12:24.423Z,1006.01
2017-11-29T03:13:51.733Z,1006.01
2017-11-29T03:15:19.005Z,1006.00
2017-11-29T03:16:46.434Z,1006.04
2017-11-29T03:18:13.732Z,1006.01
2017-11-29T03:19:40.878Z,1006.02
2017-11-29T03:21:07.920Z,1006.03
2017-11-29T03:22:35.231Z,1006.04
2017-11-29T03:24:02.489Z,1006.08
2017-11-29T03:25:29.435Z,1006.08
2017-11-29T03:26:56.693Z,1006.09
2017-11-29T03:28:24.070Z,1006.07
2017-11-29T03:29:52.192Z,1006.09
2017-11-29T03:31:18.248Z,1006.11
2017-11-29T03:32:45.561Z,1006.09
2017-11-29T03:34:12.917Z,1006.13
2017-11-29T03:35:40.272Z,1006.11
2017-11-29T03:37:07.312Z,1006.14
2017-11-29T03:38:34.679Z,1006.16
2017-11-29T03:40:01.893Z,1006.14
2017-11-29T03:41:29.078Z,1006.11
2017-11-29T03:42:56.474Z,1006.12
2017-11-29T03:44:23.603Z,1006.13
2017-11-29T03:45:50.855Z,1006.13
2017-11-29T03:47:18.266Z,1006.12
2017-11-29T03:48:45.649Z,1006.15
2017-11-29T03:50:12.648Z,1006.14
2017-11-29T03:51:39.957Z,1006.16
2017-11-29T03:53:07.018Z,1006.18
2017-11-29T03:54:34.447Z,1006.20
2017-11-29T03:56:01.492Z,1006.21
2017-11-29T03:57:28.680Z,1006.21
2017-11-29T03:58:56.176Z,1006.19
2017-11-29T04:00:23.271Z,1006.18
2017-11-29T04:01:50.519Z,1006.18
2017-11-29T04:03:17.691Z,1006.19
2017-11-29T04:04:44.897Z,1006.19
2017-11-29T04:06:12.242Z,1006.19
2017-11-29T04:07:39.664Z,1006.22
2017-11-29T04:09:07.106Z,1006.21
2017-11-29T04:10:34.445Z,1006.23
2017-11-29T04:12:01.515Z,1006.20
2017-11-29T04:13:28.849Z,1006.23
2017-11-29T04:14:56.021Z,1006.22
2017-11-29T04:16:23.365Z,1006.21
2017-11-29T04:17:50.788Z,1006.22
2017-11-29T04:19:18.375Z,1006.27
2017-11-29T04:20:45.703Z,1006.23
2017-11-29T04:22:12.966Z,1006.22
2017-11-29T04:23:40.287Z,1006.22
2017-11-29T04:25:07.502Z,1006.24
2017-11-29T04:26:34.870Z,1006.23
2017-11-29T04:28:02.029Z,1006.25
2017-11-29T04:29:29.212Z,1006.24
2017-11-29T04:30:56.167Z,1006.28
2017-11-29T04:32:23.330Z,1006.28
2017-11-29T04:33:50.343Z,1006.27
2017-11-29T04:35:17.377Z,1006.26
2017-11-29T04:36:44.581Z,1006.26
2017-11-29T04:38:11.691Z,1006.28
2017-11-29T04:39:38.956Z,1006.28
2017-11-29T04:41:06.215Z,1006.27
2017-11-29T04:42:33.510Z,1006.26
2017-11-29T04:44:00.597Z,1006.30
2017-11-29T04:45:28.178Z,1006.29
2017-11-29T04:46:55.255Z,1006.29
2017-11-29T04:48:22.636Z,1006.31
2017-11-29T04:49:50.094Z,1006.30
2017-11-29T04:51:17.437Z,1006.33
2017-11-29T04:52:44.820Z,1006.35
2017-11-29T04:54:12.166Z,1006.34
2017-11-29T04:55:39.244Z,1006.33
2017-11-29T04:57:06.653Z,1006.34
2017-11-29T04:58:33.748Z,1006.35
2017-11-29T05:00:01.037Z,1006.37
2017-11-29T05:01:28.029Z,1006.36
2017-11-29T05:02:55.102Z,1006.37
2017-11-29T05:04:22.502Z,1006.35
2017-11-29T05:05:49.799Z,1006.37
2017-11-29T05:07:17.001Z,1006.35
2017-11-29T05:08:44.218Z,1006.32
2017-11-29T05:10:11.591Z,1006.34
2017-11-29T05:11:38.521Z,1006.35
2017-11-29T05:13:05.880Z,1006.36
2017-11-29T05:14:33.132Z,1006.37
2017-11-29T05:16:00.319Z,1006.36
2017-11-29T05:17:27.367Z,1006.34
2017-11-29T05:18:54.696Z,1006.37
2017-11-29T05:20:22.020Z,1006.36
2017-11-29T05:21:49.353Z,1006.37
2017-11-29T05:23:17.085Z,1006.35
2017-11-29T05:24:43.903Z,1006.34
2017-11-29T05:26:11.132Z,1006.38
2017-11-29T05:27:38.343Z,1006.37
2017-11-29T05:29:05.695Z,1006.39
2017-11-29T05:30:32.883Z,1006.40
2017-11-29T05:31:59.926Z,1006.40
2017-11-29T05:33:26.835Z,1006.39
2017-11-29T05:34:54.043Z,1006.44
2017-11-29T05:36:21.440Z,1006.44
2017-11-29T05:37:48.781Z,1006.46
2017-11-29T05:39:16.105Z,1006.46
2017-11-29T05:40:43.468Z,1006.47
2017-11-29T05:42:10.582Z,1006.46
2017-11-29T05:43:37.873Z,1006.47
2017-11-29T05:45:05.166Z,1006.49
2017-11-29T05:46:32.384Z,1006.48
2017-11-29T05:47:59.622Z,1006.50
2017-11-29T05:49:26.965Z,1006.49
2017-11-29T05:50:54.012Z,1006.51
2017-11-29T05:52:20.813Z,1006.51
2017-11-29T05:53:47.863Z,1006.51
2017-11-29T05:55:15.131Z,1006.52
2017-11-29T05:56:42.487Z,1006.54
2017-11-29T05:58:09.889Z,1006.54
2017-11-29T05:59:37.005Z,1006.53
2017-11-29T06:01:04.126Z,1006.55
2017-11-29T06:02:31.246Z,1006.56
2017-11-29T06:03:58.226Z,1006.58
2017-11-29T06:05:25.558Z,1006.61
2017-11-29T06:06:52.942Z,1006.64
2017-11-29T06:08:20.211Z,1006.64
2017-11-29T06:09:47.597Z,1006.67
2017-11-29T06:11:14.967Z,1006.69
2017-11-29T06:12:42.292Z,1006.72
2017-11-29T06:14:09.302Z,1006.72
2017-11-29T06:15:36.396Z,1006.74
2017-11-29T06:17:03.634Z,1006.74
2017-11-29T06:18:30.737Z,1006.77
2017-11-29T06:19:58.223Z,1006.76
2017-11-29T06:21:25.451Z,1006.78
2017-11-29T06:22:53.001Z,1006.78
2017-11-29T06:24:20.479Z,1006.78
2017-11-29T06:25:47.313Z,1006.80
2017-11-29T06:27:14.329Z,1006.78
2017-11-29T06:28:41.699Z,1006.82
2017-11-29T06:30:08.908Z,1006.82
2017-11-29T06:31:35.730Z,1006.82
2017-11-29T06:33:03.181Z,1006.80
2017-11-29T06:34:30.354Z,1006.82
2017-11-29T06:35:57.725Z,1006.82
2017-11-29T06:37:24.492Z,1006.85
2017-11-29T06:38:51.761Z,1006.84
2017-11-29T06:40:19.137Z,1006.86
2017-11-29T06:41:46.454Z,1006.87
2017-11-29T06:43:13.883Z,1006.87
2017-11-29T06:44:40.893Z,1006.89
2017-11-29T06:46:08.112Z,1006.93
2017-11-29T06:47:35.652Z,1006.96
2017-11-29T06:49:02.450Z,1006.98
2017-11-29T06:50:29.906Z,1006.97
2017-11-29T06:51:57.256Z,1007.01
2017-11-29T06:53:24.610Z,1007.00
2017-11-29T06:54:52.106Z,1007.02
2017-11-29T06:56:19.471Z,1007.08
2017-11-29T06:57:46.889Z,1007.09
2017-11-29T06:59:14.295Z,1007.13
2017-11-29T07:00:41.561Z,1007.14
2017-11-29T07:02:08.864Z,1007.18
2017-11-29T07:03:35.910Z,1007.22
2017-11-29T07:05:03.522Z,1007.23
2017-11-29T07:06:30.735Z,1007.26
2017-11-29T07:07:58.210Z,1007.29
2017-11-29T07:09:25.678Z,1007.32
2017-11-29T07:10:52.954Z,1007.34
2017-11-29T07:12:20.363Z,1007.37
2017-11-29T07:13:47.710Z,1007.41
2017-11-29T07:15:14.877Z,1007.43
2017-11-29T07:16:42.297Z,1007.42
2017-11-29T07:18:09.563Z,1007.45
2017-11-29T07:19:36.346Z,1007.44
2017-11-29T07:21:03.477Z,1007.47
2017-11-29T07:22:30.701Z,1007.49
2017-11-29T07:23:57.717Z,1007.52
2017-11-29T07:25:24.629Z,1007.53
2017-11-29T07:26:51.768Z,1007.57
2017-11-29T07:28:19.095Z,1007.57
2017-11-29T07:29:45.816Z,1007.58
2017-11-29T07:31:13.156Z,1007.57
2017-11-29T07:32:40.622Z,1007.60
2017-11-29T07:34:07.715Z,1007.60
2017-11-29T07:35:34.876Z,1007.63
2017-11-29T07:37:01.944Z,1007.62
2017-11-29T07:38:29.218Z,1007.64
2017-11-29T07:39:56.264Z,1007.64
2017-11-29T07:41:23.519Z,1007.64
2017-11-29T07:42:50.652Z,1007.65
2017-11-29T07:44:17.857Z,1007.66
2017-11-29T07:45:45.011Z,1007.66
2017-11-29T07:47:12.286Z,1007.64
2017-11-29T07:48:39.477Z,1007.66
2017-11-29T07:50:06.513Z,1007.67
2017-11-29T07:51:33.810Z,1007.68
2017-11-29T07:53:00.891Z,1007.69
2017-11-29T07:54:27.679Z,1007.68
2017-11-29T07:55:54.937Z,1007.69
2017-11-29T07:57:22.164Z,1007.67
2017-11-29T07:58:49.245Z,1007.68
2017-11-29T08:00:16.596Z,1007.67
2017-11-29T08:01:43.914Z,1007.68
2017-11-29T08:03:10.994Z,1007.70
2017-11-29T08:04:38.286Z,1007.69
2017-11-29T08:06:05.589Z,1007.70
2017-11-29T08:07:32.941Z,1007.68
2017-11-29T08:09:00.126Z,1007.72
2017-11-29T08:10:27.505Z,1007.69
2017-11-29T08:11:54.549Z,1007.72
2017-11-29T08:13:21.906Z,1007.72
2017-11-29T08:14:49.289Z,1007.73
2017-11-29T08:16:16.583Z,1007.78
2017-11-29T08:17:43.922Z,1007.77
2017-11-29T08:19:11.350Z,1007.81
2017-11-29T08:20:38.776Z,1007.83
2017-11-29T08:22:06.188Z,1007.85
2017-11-29T08:23:33.358Z,1007.84
2017-11-29T08:25:00.546Z,1007.88
2017-11-29T08:26:27.746Z,1007.88
2017-11-29T08:27:55.198Z,1007.92
2017-11-29T08:29:22.540Z,1007.93
2017-11-29T08:30:49.752Z,1007.93
2017-11-29T08:32:16.872Z,1007.98
2017-11-29T08:33:44.029Z,1007.96
2017-11-29T08:35:11.328Z,1007.98
2017-11-29T08:36:38.494Z,1008.00
2017-11-29T08:38:05.629Z,1007.98
2017-11-29T08:39:32.801Z,1008.02
2017-11-29T08:41:00.020Z,1008.03
2017-11-29T08:42:27.116Z,1008.04
2017-11-29T08:43:54.125Z,1008.08
2017-11-29T08:45:21.294Z,1008.08
2017-11-29T08:46:48.404Z,1008.08
2017-11-29T08:48:15.611Z,1008.10
2017-11-29T08:49:42.913Z,1008.11
2017-11-29T08:51:10.079Z,1008.12
2017-11-29T08:52:37.459Z,1008.12
2017-11-29T08:54:04.672Z,1008.13
2017-11-29T08:55:31.993Z,1008.14
2017-11-29T08:56:59.151Z,1008.14
2017-11-29T08:58:26.125Z,1008.15
2017-11-29T08:59:53.575Z,1008.15
2017-11-29T09:01:20.633Z,1008.21
2017-11-29T09:02:48.005Z,1008.20
2017-11-29T09:04:15.268Z,1008.20
2017-11-29T09:05:42.546Z,1008.19
2017-11-29T09:07:09.465Z,1008.21
2017-11-29T09:08:36.814Z,1008.19
2017-11-29T09:10:03.644Z,1008.18
2017-11-29T09:11:30.865Z,1008.16
2017-11-29T09:12:58.014Z,1008.20
2017-11-29T09:14:25.107Z,1008.21
2017-11-29T09:15:52.140Z,1008.21
2017-11-29T09:17:19.531Z,1008.23
2017-11-29T09:18:46.796Z,1008.25
2017-11-29T09:20:14.319Z,1008.26
2017-11-29T09:21:41.580Z,1008.26
2017-11-29T09:23:08.614Z,1008.29
2017-11-29T09:24:35.699Z,1008.31
2017-11-29T09:26:02.966Z,1008.28
2017-11-29T09:27:30.092Z,1008.30
2017-11-29T09:28:57.439Z,1008.28
2017-11-29T09:30:24.469Z,1008.26
2017-11-29T09:31:51.838Z,1008.29
2017-11-29T09:33:18.986Z,1008.29
2017-11-29T09:34:46.025Z,1008.30
2017-11-29T09:36:13.347Z,1008.32
2017-11-29T09:37:40.516Z,1008.34
2017-11-29T09:39:07.790Z,1008.33
2017-11-29T09:40:35.145Z,1008.33
2017-11-29T09:42:02.436Z,1008.36
2017-11-29T09:43:29.667Z,1008.37
2017-11-29T09:44:56.577Z,1008.36
2017-11-29T09:46:23.531Z,1008.38
2017-11-29T09:47:50.770Z,1008.38
2017-11-29T09:49:17.917Z,1008.37
2017-11-29T09:50:45.173Z,1008.38
2017-11-29T09:52:12.481Z,1008.38
2017-11-29T09:53:39.855Z,1008.38
2017-11-29T09:55:07.282Z,1008.37
2017-11-29T09:56:34.362Z,1008.38
2017-11-29T09:58:01.670Z,1008.39
2017-11-29T09:59:28.628Z,1008.38
2017-11-29T10:00:55.980Z,1008.37
2017-11-29T10:02:23.188Z,1008.37
2017-11-29T10:03:50.418Z,1008.37
2017-11-29T10:05:17.445Z,1008.34
2017-11-29T10:06:44.652Z,1008.35
2017-11-29T10:08:11.898Z,1008.35
2017-11-29T10:09:39.335Z,1008.36
2017-11-29T10:11:06.449Z,1008.36
2017-11-29T10:12:33.698Z,1008.37
2017-11-29T10:14:00.839Z,1008.35
2017-11-29T10:15:28.030Z,1008.35
2017-11-29T10:16:55.238Z,1008.32
2017-11-29T10:18:22.648Z,1008.29
2017-11-29T10:19:49.992Z,1008.29
2017-11-29T10:21:17.387Z,1008.28
2017-11-29T10:22:44.810Z,1008.28
2017-11-29T10:24:11.919Z,1008.23
2017-11-29T10:25:39.139Z,1008.23
2017-11-29T10:27:06.372Z,1008.24
2017-11-29T10:28:33.574Z,1008.25
2017-11-29T10:30:00.672Z,1008.27
2017-11-29T10:31:28.102Z,1008.27
2017-11-29T10:32:55.444Z,1008.28
2017-11-29T10:34:22.831Z,1008.27
2017-11-29T10:35:50.113Z,1008.29
2017-11-29T10:37:17.117Z,1008.29
2017-11-29T10:38:44.532Z,1008.28
2017-11-29T10:40:11.531Z,1008.30
2017-11-29T10:41:38.841Z,1008.28
2017-11-29T10:43:06.248Z,1008.30
2017-11-29T10:44:33.608Z,1008.29
2017-11-29T10:46:00.744Z,1008.29
2017-11-29T10:47:28.182Z,1008.29
2017-11-29T10:48:55.479Z,1008.32
2017-11-29T10:50:22.926Z,1008.34
2017-11-29T10:51:50.328Z,1008.35
2017-11-29T10:53:17.545Z,1008.36
2017-11-29T10:54:44.812Z,1008.36
2017-11-29T10:56:11.978Z,1008.38
2017-11-29T10:57:39.317Z,1008.34
2017-11-29T10:59:06.643Z,1008.34
2017-11-29T11:00:33.859Z,1008.34
2017-11-29T11:02:01.004Z,1008.35
2017-11-29T11:03:28.027Z,1008.33
2017-11-29T11:04:55.417Z,1008.33
2017-11-29T11:06:22.653Z,1008.34
2017-11-29T11:07:50.048Z,1008.35
2017-11-29T11:09:17.397Z,1008.36
2017-11-29T11:10:44.786Z,1008.38
2017-11-29T11:12:11.973Z,1008.39
2017-11-29T11:13:39.456Z,1008.42
2017-11-29T11:15:06.418Z,1008.40
2017-11-29T11:16:33.895Z,1008.40
2017-11-29T11:18:01.127Z,1008.41
2017-11-29T11:19:28.170Z,1008.41
2017-11-29T11:20:55.561Z,1008.42
2017-11-29T11:22:23.098Z,1008.42
2017-11-29T11:23:50.215Z,1008.42
2017-11-29T11:25:17.591Z,1008.44
2017-11-29T11:26:44.994Z,1008.42
2017-11-29T11:28:12.075Z,1008.42
2017-11-29T11:29:39.189Z,1008.42
2017-11-29T11:31:06.172Z,1008.41
2017-11-29T11:32:33.189Z,1008.41
2017-11-29T11:34:00.353Z,1008.42
2017-11-29T11:35:27.669Z,1008.40
2017-11-29T11:36:55.000Z,1008.40
2017-11-29T11:38:22.407Z,1008.40
2017-11-29T11:39:49.544Z,1008.39
2017-11-29T11:41:16.796Z,1008.39
2017-11-29T11:42:43.936Z,1008.39
2017-11-29T11:44:11.119Z,1008.37
2017-11-29T11:45:38.318Z,1008.39
2017-11-29T11:47:05.664Z,1008.39
2017-11-29T11:48:32.670Z,1008.37
2017-11-29T11:50:00.014Z,1008.35
2017-11-29T11:51:27.249Z,1008.36
2017-11-29T11:52:54.709Z,1008.35
2017-11-29T11:54:21.945Z,1008.34
2017-11-29T11:55:49.160Z,1008.33
2017-11-29T11:57:16.393Z,1008.32
2017-11-29T11:58:43.662Z,1008.31
2017-11-29T12:00:10.880Z,1008.29
2017-11-29T12:01:38.216Z,1008.30
2017-11-29T12:03:05.303Z,1008.31
2017-11-29T12:04:32.493Z,1008.29
2017-11-29T12:05:59.885Z,1008.29
2017-11-29T12:07:26.966Z,1008.27
2017-11-29T12:08:54.054Z,1008.27
2017-11-29T12:10:21.186Z,1008.27
2017-11-29T12:11:48.486Z,1008.27
2017-11-29T12:13:15.862Z,1008.31
2017-11-29T12:14:42.972Z,1008.32
2017-11-29T12:16:10.383Z,1008.30
2017-11-29T12:17:37.486Z,1008.30
2017-11-29T12:19:04.598Z,1008.31
2017-11-29T12:20:31.947Z,1008.31
2017-11-29T12:21:59.183Z,1008.30
2017-11-29T12:23:26.216Z,1008.33
2017-11-29T12:24:53.621Z,1008.34
2017-11-29T12:26:20.750Z,1008.36
2017-11-29T12:27:47.855Z,1008.35
2017-11-29T12:29:15.283Z,1008.37
2017-11-29T12:30:42.504Z,1008.37
2017-11-29T12:32:09.924Z,1008.37
2017-11-29T12:33:37.092Z,1008.36
2017-11-29T12:35:04.378Z,1008.36
2017-11-29T12:36:31.607Z,1008.38
2017-11-29T12:37:58.501Z,1008.38
2017-11-29T12:39:25.804Z,1008.38
2017-11-29T12:40:53.176Z,1008.38
2017-11-29T12:42:20.313Z,1008.38
2017-11-29T12:43:47.151Z,1008.37
2017-11-29T12:45:14.473Z,1008.39
2017-11-29T12:46:41.763Z,1008.38
2017-11-29T12:48:08.960Z,1008.37
2017-11-29T12:49:36.410Z,1008.39
2017-11-29T12:51:03.480Z,1008.40
2017-11-29T12:52:30.684Z,1008.40
2017-11-29T12:53:57.683Z,1008.41
2017-11-29T12:55:24.666Z,1008.39
2017-11-29T12:56:51.881Z,1008.38
2017-11-29T12:58:19.256Z,1008.38
2017-11-29T12:59:46.617Z,1008.37
2017-11-29T13:01:13.710Z,1008.37
2017-11-29T13:02:41.029Z,1008.38
2017-11-29T13:04:08.266Z,1008.39
2017-11-29T13:05:35.620Z,1008.40
2017-11-29T13:07:02.546Z,1008.41
2017-11-29T13:08:29.585Z,1008.38
2017-11-29T13:09:56.931Z,1008.41
2017-11-29T13:11:24.469Z,1008.40
2017-11-29T13:12:51.753Z,1008.38
2017-11-29T13:14:19.168Z,1008.39
2017-11-29T13:15:46.551Z,1008.38
2017-11-29T13:17:13.919Z,1008.37
2017-11-29T13:18:40.966Z,1008.37
2017-11-29T13:20:07.967Z,1008.37
2017-11-29T13:21:35.035Z,1008.36
2017-11-29T13:23:02.269Z,1008.35
2017-11-29T13:24:29.236Z,1008.37
2017-11-29T13:25:56.512Z,1008.39
2017-11-29T13:27:23.679Z,1008.40
2017-11-29T13:28:50.837Z,1008.40
2017-11-29T13:30:18.356Z,1008.40
2017-11-29T13:31:45.522Z,1008.40
2017-11-29T13:33:12.876Z,1008.41
2017-11-29T13:34:40.222Z,1008.40
2017-11-29T13:36:07.475Z,1008.37
2017-11-29T13:37:34.644Z,1008.36
2017-11-29T13:39:01.889Z,1008.36
2017-11-29T13:40:28.803Z,1008.35
2017-11-29T13:41:56.173Z,1008.39
2017-11-29T13:43:23.117Z,1008.39
2017-11-29T13:44:50.418Z,1008.38
2017-11-29T13:46:17.884Z,1008.41
2017-11-29T13:47:44.918Z,1008.43
2017-11-29T13:49:12.046Z,1008.44
2017-11-29T13:50:39.356Z,1008.45
2017-11-29T13:52:06.524Z,1008.46
2017-11-29T13:53:33.888Z,1008.46
2017-11-29T13:55:01.089Z,1008.46
2017-11-29T13:56:28.125Z,1008.49
2017-11-29T13:57:55.447Z,1008.49
2017-11-29T13:59:22.905Z,1008.50
2017-11-29T14:00:50.221Z,1008.49
2017-11-29T14:02:17.142Z,1008.47
2017-11-29T14:03:44.470Z,1008.49
2017-11-29T14:05:11.597Z,1008.48
2017-11-29T14:06:38.852Z,1008.49
2017-11-29T14:08:05.993Z,1008.49
2017-11-29T14:09:33.285Z,1008.52
2017-11-29T14:11:00.456Z,1008.50
2017-11-29T14:12:27.480Z,1008.51
2017-11-29T14:13:54.822Z,1008.54
2017-11-29T14:15:21.882Z,1008.54
2017-11-29T14:16:48.972Z,1008.55
2017-11-29T14:18:16.284Z,1008.56
2017-11-29T14:19:43.582Z,1008.55
2017-11-29T14:21:10.956Z,1008.56
2017-11-29T14:22:37.971Z,1008.56
2017-11-29T14:24:05.135Z,1008.56
2017-11-29T14:25:32.350Z,1008.56
2017-11-29T14:26:59.445Z,1008.56
2017-11-29T14:28:26.624Z,1008.60
2017-11-29T14:29:53.696Z,1008.61
2017-11-29T14:31:21.150Z,1008.60
2017-11-29T14:32:48.382Z,1008.62
2017-11-29T14:34:15.659Z,1008.63
2017-11-29T14:35:42.993Z,1008.62
2017-11-29T14:37:10.314Z,1008.60
2017-11-29T14:38:37.494Z,1008.61
2017-11-29T14:40:04.676Z,1008.59
2017-11-29T14:41:31.956Z,1008.59
2017-11-29T14:42:59.214Z,1008.60
2017-11-29T14:44:26.328Z,1008.60
2017-11-29T14:45:53.426Z,1008.62
2017-11-29T14:47:20.840Z,1008.66
2017-11-29T14:48:48.084Z,1008.62
2017-11-29T14:50:15.162Z,1008.62
2017-11-29T14:51:42.383Z,1008.63
2017-11-29T14:53:09.623Z,1008.66
2017-11-29T14:54:36.707Z,1008.65
2017-11-29T14:56:03.983Z,1008.65
2017-11-29T14:57:31.144Z,1008.68
2017-11-29T14:58:58.066Z,1008.68
2017-11-29T15:00:25.267Z,1008.70
2017-11-29T15:01:52.534Z,1008.71
2017-11-29T15:03:19.904Z,1008.68
2017-11-29T15:04:47.230Z,1008.70
2017-11-29T15:06:14.588Z,1008.69
2017-11-29T15:07:41.724Z,1008.68
2017-11-29T15:09:09.048Z,1008.69
2017-11-29T15:10:36.423Z,1008.70
2017-11-29T15:12:03.685Z,1008.71
2017-11-29T15:13:30.988Z,1008.70
2017-11-29T15:14:58.343Z,1008.70
2017-11-29T15:16:25.702Z,1008.70
2017-11-29T15:17:52.715Z,1008.69
2017-11-29T15:19:19.899Z,1008.67
2017-11-29T15:20:47.304Z,1008.65
2017-11-29T15:22:14.371Z,1008.66
2017-11-29T15:23:41.656Z,1008.63
2017-11-29T15:25:08.873Z,1008.63
2017-11-29T15:26:35.855Z,1008.65
2017-11-29T15:28:03.096Z,1008.69
2017-11-29T15:29:30.372Z,1008.72
2017-11-29T15:30:57.748Z,1008.72
2017-11-29T15:32:24.971Z,1008.72
2017-11-29T15:33:52.521Z,1008.74
2017-11-29T15:35:19.698Z,1008.77
2017-11-29T15:36:47.021Z,1008.76
2017-11-29T15:38:14.355Z,1008.76
2017-11-29T15:39:41.820Z,1008.75
2017-11-29T15:41:09.206Z,1008.76
2017-11-29T15:42:36.431Z,1008.75
2017-11-29T15:44:03.742Z,1008.73
2017-11-29T15:45:31.011Z,1008.75
2017-11-29T15:46:58.260Z,1008.75
2017-11-29T15:48:25.636Z,1008.75
2017-11-29T15:49:53.060Z,1008.77
2017-11-29T15:51:20.208Z,1008.78
2017-11-29T15:52:47.691Z,1008.82
2017-11-29T15:54:14.823Z,1008.82
2017-11-29T15:55:41.904Z,1008.83
2017-11-29T15:57:09.341Z,1008.84
2017-11-29T15:58:36.329Z,1008.87
2017-11-29T16:00:03.390Z,1008.86
2017-11-29T16:01:30.748Z,1008.88
2017-11-29T16:02:57.723Z,1008.87
2017-11-29T16:04:24.811Z,1008.87
2017-11-29T16:05:52.041Z,1008.84
2017-11-29T16:07:19.415Z,1008.85
2017-11-29T16:08:46.632Z,1008.83
2017-11-29T16:10:13.914Z,1008.85
2017-11-29T16:11:40.999Z,1008.84
2017-11-29T16:13:08.235Z,1008.87
2017-11-29T16:14:35.350Z,1008.87
2017-11-29T16:16:02.762Z,1008.86
2017-11-29T16:17:29.632Z,1008.85
2017-11-29T16:18:56.920Z,1008.86
2017-11-29T16:20:24.480Z,1008.88
2017-11-29T16:21:51.811Z,1008.86
2017-11-29T16:23:18.857Z,1008.87
2017-11-29T16:24:46.139Z,1008.84
2017-11-29T16:26:13.296Z,1008.83
2017-11-29T16:27:40.516Z,1008.83
2017-11-29T16:29:07.600Z,1008.82
2017-11-29T16:30:34.913Z,1008.81
2017-11-29T16:32:02.068Z,1008.81
2017-11-29T16:33:29.281Z,1008.82
2017-11-29T16:34:56.620Z,1008.84
2017-11-29T16:36:23.814Z,1008.83
2017-11-29T16:37:51.037Z,1008.84
2017-11-29T16:39:17.975Z,1008.84
2017-11-29T16:40:45.163Z,1008.83
2017-11-29T16:42:12.317Z,1008.81
2017-11-29T16:43:39.480Z,1008.80
2017-11-29T16:45:06.831Z,1008.78
2017-11-29T16:46:34.005Z,1008.77
2017-11-29T16:48:01.360Z,1008.76
2017-11-29T16:49:28.119Z,1008.75
2017-11-29T16:50:55.346Z,1008.74
2017-11-29T16:52:22.501Z,1008.75
2017-11-29T16:53:49.296Z,1008.76
2017-11-29T16:55:16.502Z,1008.75
2017-11-29T16:56:43.720Z,1008.76
2017-11-29T16:58:10.974Z,1008.75
2017-11-29T16:59:38.171Z,1008.77
2017-11-29T17:01:05.581Z,1008.75
2017-11-29T17:02:33.023Z,1008.75
2017-11-29T17:04:00.140Z,1008.76
2017-11-29T17:05:27.512Z,1008.75
2017-11-29T17:06:54.678Z,1008.76
2017-11-29T17:08:22.052Z,1008.75
2017-11-29T17:09:49.179Z,1008.73
2017-11-29T17:11:16.396Z,1008.70
2017-11-29T17:12:43.678Z,1008.71
2017-11-29T17:14:10.643Z,1008.68
2017-11-29T17:15:37.901Z,1008.67
2017-11-29T17:17:05.069Z,1008.69
2017-11-29T17:18:32.233Z,1008.71
2017-11-29T17:19:59.402Z,1008.70
2017-11-29T17:21:26.612Z,1008.69
2017-11-29T17:22:53.492Z,1008.70
2017-11-29T17:24:20.537Z,1008.69
2017-11-29T17:25:47.693Z,1008.71
2017-11-29T17:27:14.973Z,1008.69
2017-11-29T17:28:42.115Z,1008.70
2017-11-29T17:30:09.102Z,1008.68
2017-11-29T17:31:36.432Z,1008.69
2017-11-29T17:33:03.722Z,1008.70
2017-11-29T17:34:30.871Z,1008.70
2017-11-29T17:35:58.089Z,1008.72